Time,TemperatureF,DewpointF,PressureIn,WindDirection,WindDirectionDegrees,WindSpeedMPH,WindSpeedGustMPH,Humidity,HourlyPrecipIn,Conditions,Clouds,dailyrainin,SoftwareType,DateUTC
2013-04-17 00:00:00,40.5,38.3,30.16,SSW,213,0.0,0.0,92,0.00,,OVC030,0.31,VWS V14.01,2013-04-17 04:00:00,
2013-04-17 00:01:00,40.5,38.3,30.16,SSW,212,0.0,0.0,92,0.00,,OVC030,0.00,VWS V14.01,2013-04-17 04:01:00,
2013-04-17 00:06:00,40.5,38.3,30.16,NW,316,0.0,0.0,92,0.00,,OVC030,0.00,VWS V14.01,2013-04-17 04:06:00,
2013-04-17 00:11:00,40.5,38.3,30.16,SSW,212,0.0,0.0,92,0.00,,OVC030,0.00,VWS V14.01,2013-04-17 04:11:00,
2013-04-17 00:16:00,40.5,38.3,30.16,SW,224,0.0,0.0,92,0.00,,OVC030,0.00,VWS V14.01,2013-04-17 04:16:00,
2013-04-17 00:21:00,40.3,37.9,30.16,East,82,0.0,0.0,91,0.00,,OVC030,0.00,VWS V14.01,2013-04-17 04:21:00,
2013-04-17 00:26:00,39.9,37.5,30.16,NW,311,0.0,0.0,91,0.00,,OVC030,0.00,VWS V14.01,2013-04-17 04:26:00,
2013-04-17 00:31:00,39.9,37.5,30.16,NW,318,0.0,0.0,91,0.00,,OVC030,0.00,VWS V14.01,2013-04-17 04:31:00,
2013-04-17 00:36:00,39.7,37.3,30.16,NW,318,0.0,0.0,91,0.00,,OVC030,0.00,VWS V14.01,2013-04-17 04:36:00,
2013-04-17 00:41:00,39.7,37.3,30.16,NW,318,0.0,0.0,91,0.00,,OVC032,0.00,VWS V14.01,2013-04-17 04:41:00,
2013-04-17 00:46:00,39.6,37.2,30.16,NW,317,0.0,0.0,91,0.00,,OVC032,0.00,VWS V14.01,2013-04-17 04:46:00,
2013-04-17 00:51:00,39.2,36.5,30.16,South,172,0.0,0.0,90,0.00,,OVC032,0.00,VWS V14.01,2013-04-17 04:51:00,
2013-04-17 00:56:00,39.0,36.6,30.16,South,172,0.0,0.0,91,0.00,,OVC032,0.00,VWS V14.01,2013-04-17 04:56:00,
2013-04-17 01:01:00,38.8,36.4,30.16,South,172,0.0,0.0,91,0.00,,OVC032,0.00,VWS V14.01,2013-04-17 05:01:00,
2013-04-17 01:06:00,38.3,35.6,30.16,South,172,0.0,0.0,90,0.00,,OVC032,0.00,VWS V14.01,2013-04-17 05:06:00,
2013-04-17 01:11:00,37.9,35.3,30.16,South,172,0.0,0.0,90,0.00,,OVC032,0.00,VWS V14.01,2013-04-17 05:11:00,
2013-04-17 01:16:00,37.6,34.9,30.19,South,172,0.0,0.0,90,0.00,,OVC032,0.00,VWS V14.01,2013-04-17 05:16:00,
2013-04-17 01:21:00,37.0,34.4,30.19,South,172,0.0,0.0,90,0.00,,OVC032,0.00,VWS V14.01,2013-04-17 05:21:00,
2013-04-17 01:26:00,36.9,34.2,30.19,South,172,0.0,0.0,90,0.00,,OVC032,0.00,VWS V14.01,2013-04-17 05:26:00,
2013-04-17 01:31:00,36.5,33.8,30.19,South,172,0.0,0.0,90,0.00,,OVC032,0.00,VWS V14.01,2013-04-17 05:31:00,
2013-04-17 01:36:00,36.1,33.5,30.19,South,172,0.0,0.0,90,0.00,,OVC032,0.00,VWS V14.01,2013-04-17 05:36:00,
2013-04-17 01:41:00,36.0,33.3,30.19,South,172,0.0,0.0,90,0.00,,OVC040,0.00,VWS V14.01,2013-04-17 05:41:00,
2013-04-17 01:46:00,35.6,33.0,30.19,South,172,0.0,0.0,90,0.00,,OVC040,0.00,VWS V14.01,2013-04-17 05:46:00,
2013-04-17 01:51:00,35.2,32.6,30.19,South,172,0.0,0.0,90,0.00,,OVC040,0.00,VWS V14.01,2013-04-17 05:51:00,
2013-04-17 01:56:00,34.7,32.1,30.19,South,172,0.0,0.0,90,0.00,,OVC040,0.00,VWS V14.01,2013-04-17 05:56:00,
2013-04-17 02:01:00,34.5,31.9,30.19,South,172,0.0,0.0,90,0.00,,OVC040,0.00,VWS V14.01,2013-04-17 06:01:00,
2013-04-17 02:06:00,34.2,31.5,30.19,South,172,0.0,0.0,90,0.00,,OVC040,0.00,VWS V14.01,2013-04-17 06:06:00,
2013-04-17 02:11:00,34.0,31.4,30.19,South,172,0.0,0.0,90,0.00,,OVC040,0.00,VWS V14.01,2013-04-17 06:11:00,
2013-04-17 02:16:00,33.8,31.2,30.19,South,172,0.0,0.0,90,0.00,,OVC040,0.00,VWS V14.01,2013-04-17 06:16:00,
2013-04-17 02:21:00,33.4,30.8,30.19,South,172,0.0,0.0,90,0.00,,OVC040,0.00,VWS V14.01,2013-04-17 06:21:00,
2013-04-17 02:26:00,33.1,30.5,30.19,South,172,0.0,0.0,90,0.00,,OVC040,0.00,VWS V14.01,2013-04-17 06:26:00,
2013-04-17 02:31:00,32.7,30.1,30.19,South,172,0.0,0.0,90,0.00,,OVC040,0.00,VWS V14.01,2013-04-17 06:31:00,
2013-04-17 02:36:00,32.5,29.9,30.19,South,172,0.0,0.0,90,0.00,,OVC040,0.00,VWS V14.01,2013-04-17 06:36:00,
2013-04-17 02:41:00,32.4,29.8,30.19,South,172,0.0,0.0,90,0.00,,SCT042,0.00,VWS V14.01,2013-04-17 06:41:00,
2013-04-17 02:46:00,32.2,29.6,30.19,South,172,0.0,0.0,90,0.00,,SCT042,0.00,VWS V14.01,2013-04-17 06:46:00,
2013-04-17 02:51:00,31.8,29.2,30.19,South,172,0.0,0.0,90,0.00,,SCT042,0.00,VWS V14.01,2013-04-17 06:51:00,
2013-04-17 02:57:00,31.6,29.0,30.19,South,172,0.0,0.0,90,0.00,,SCT042,0.00,VWS V14.01,2013-04-17 06:57:00,
2013-04-17 03:02:00,31.3,28.7,30.19,South,172,0.0,0.0,90,0.00,,SCT042,0.00,VWS V14.01,2013-04-17 07:02:00,
2013-04-17 03:07:00,31.1,28.5,30.19,South,172,0.0,0.0,90,0.00,,SCT042,0.00,VWS V14.01,2013-04-17 07:07:00,
2013-04-17 03:12:00,31.1,28.8,30.19,South,172,0.0,0.0,91,0.00,,SCT042,0.00,VWS V14.01,2013-04-17 07:12:00,
2013-04-17 03:17:00,30.9,28.6,30.19,South,172,0.0,0.0,91,0.00,,SCT042,0.00,VWS V14.01,2013-04-17 07:17:00,
2013-04-17 03:22:00,30.9,28.6,30.19,South,172,0.0,0.0,91,0.00,,SCT042,0.00,VWS V14.01,2013-04-17 07:22:00,
2013-04-17 03:27:00,30.9,28.6,30.19,South,172,0.0,0.0,91,0.00,,SCT042,0.00,VWS V14.01,2013-04-17 07:27:00,
2013-04-17 03:32:00,30.9,28.6,30.19,South,172,0.0,0.0,91,0.00,,SCT042,0.00,VWS V14.01,2013-04-17 07:32:00,
2013-04-17 03:37:00,30.9,28.6,30.19,South,172,0.0,0.0,91,0.00,,SCT042,0.00,VWS V14.01,2013-04-17 07:37:00,
2013-04-17 03:42:00,30.9,28.9,30.19,South,172,0.0,0.0,92,0.00,,CLR,0.00,VWS V14.01,2013-04-17 07:42:00,
2013-04-17 03:47:00,30.9,28.9,30.19,South,172,0.0,0.0,92,0.00,,CLR,0.00,VWS V14.01,2013-04-17 07:47:00,
2013-04-17 03:52:00,30.7,28.7,30.19,South,172,0.0,0.0,92,0.00,,CLR,0.00,VWS V14.01,2013-04-17 07:52:00,
2013-04-17 03:57:00,30.7,28.7,30.19,South,172,0.0,0.0,92,0.00,,CLR,0.00,VWS V14.01,2013-04-17 07:57:00,
2013-04-17 04:02:00,30.7,28.7,30.22,South,172,0.0,0.0,92,0.00,,CLR,0.00,VWS V14.01,2013-04-17 08:02:00,
2013-04-17 04:07:00,30.6,28.5,30.22,South,172,0.0,0.0,92,0.00,,CLR,0.00,VWS V14.01,2013-04-17 08:07:00,
2013-04-17 04:12:00,30.4,28.3,30.22,South,172,0.0,0.0,92,0.00,,CLR,0.00,VWS V14.01,2013-04-17 08:12:00,
2013-04-17 04:17:00,30.4,28.3,30.22,South,172,0.0,0.0,92,0.00,,CLR,0.00,VWS V14.01,2013-04-17 08:17:00,
2013-04-17 04:22:00,30.4,28.3,30.22,South,172,0.0,0.0,92,0.00,,CLR,0.00,VWS V14.01,2013-04-17 08:22:00,
2013-04-17 04:27:00,30.2,28.4,30.22,South,172,0.0,0.0,93,0.00,,CLR,0.00,VWS V14.01,2013-04-17 08:27:00,
2013-04-17 04:32:00,30.2,28.4,30.22,South,172,0.0,0.0,93,0.00,,CLR,0.00,VWS V14.01,2013-04-17 08:32:00,
2013-04-17 04:37:00,30.2,28.4,30.22,South,172,0.0,0.0,93,0.00,,CLR,0.00,VWS V14.01,2013-04-17 08:37:00,
2013-04-17 04:42:00,30.2,28.4,30.22,South,172,0.0,0.0,93,0.00,,CLR,0.00,VWS V14.01,2013-04-17 08:42:00,
2013-04-17 04:47:00,30.2,28.4,30.19,South,172,0.0,0.0,93,0.00,,CLR,0.00,VWS V14.01,2013-04-17 08:47:00,
2013-04-17 04:52:00,30.2,28.4,30.19,South,172,0.0,0.0,93,0.00,,CLR,0.00,VWS V14.01,2013-04-17 08:52:00,
2013-04-17 04:57:00,30.0,28.2,30.19,South,172,0.0,0.0,93,0.00,,CLR,0.00,VWS V14.01,2013-04-17 08:57:00,
2013-04-17 05:02:00,29.8,28.1,30.22,South,172,0.0,0.0,93,0.00,,CLR,0.00,VWS V14.01,2013-04-17 09:02:00,
2013-04-17 05:07:00,29.8,28.1,30.22,South,172,0.0,0.0,93,0.00,,CLR,0.00,VWS V14.01,2013-04-17 09:07:00,
2013-04-17 05:12:00,29.7,27.9,30.22,South,172,0.0,0.0,93,0.00,,CLR,0.00,VWS V14.01,2013-04-17 09:12:00,
2013-04-17 05:17:00,29.7,27.9,30.22,South,172,0.0,0.0,93,0.00,,CLR,0.00,VWS V14.01,2013-04-17 09:17:00,
2013-04-17 05:22:00,29.5,27.7,30.22,South,172,0.0,0.0,93,0.00,,CLR,0.00,VWS V14.01,2013-04-17 09:22:00,
2013-04-17 05:27:00,29.5,27.7,30.22,South,172,0.0,0.0,93,0.00,,CLR,0.00,VWS V14.01,2013-04-17 09:27:00,
2013-04-17 05:32:00,29.5,28.0,30.22,South,172,0.0,0.0,94,0.00,,CLR,0.00,VWS V14.01,2013-04-17 09:32:00,
2013-04-17 05:37:00,29.3,27.8,30.22,South,172,0.0,0.0,94,0.00,,CLR,0.00,VWS V14.01,2013-04-17 09:37:00,
2013-04-17 05:42:00,29.3,27.8,30.22,South,172,0.0,0.0,94,0.00,,CLR,0.00,VWS V14.01,2013-04-17 09:42:00,
2013-04-17 05:47:00,29.3,27.8,30.22,South,172,0.0,0.0,94,0.00,,CLR,0.00,VWS V14.01,2013-04-17 09:47:00,
2013-04-17 05:52:00,29.1,27.6,30.22,South,172,0.0,0.0,94,0.00,,CLR,0.00,VWS V14.01,2013-04-17 09:52:00,
2013-04-17 05:57:00,28.9,27.4,30.22,South,172,0.0,0.0,94,0.00,,CLR,0.00,VWS V14.01,2013-04-17 09:57:00,
2013-04-17 06:02:00,28.9,27.4,30.25,South,172,0.0,0.0,94,0.00,,CLR,0.00,VWS V14.01,2013-04-17 10:02:00,
2013-04-17 06:07:00,28.9,27.4,30.25,South,172,0.0,0.0,94,0.00,,CLR,0.00,VWS V14.01,2013-04-17 10:07:00,
2013-04-17 06:12:00,28.8,27.2,30.25,South,172,0.0,0.0,94,0.00,,CLR,0.00,VWS V14.01,2013-04-17 10:12:00,
2013-04-17 06:17:00,28.8,27.2,30.25,South,172,0.0,0.0,94,0.00,,CLR,0.00,VWS V14.01,2013-04-17 10:17:00,
2013-04-17 06:22:00,28.6,27.1,30.25,South,172,0.0,0.0,94,0.00,,CLR,0.00,VWS V14.01,2013-04-17 10:22:00,
2013-04-17 06:27:00,28.6,27.1,30.25,South,172,0.0,0.0,94,0.00,,CLR,0.00,VWS V14.01,2013-04-17 10:27:00,
2013-04-17 06:32:00,28.6,27.1,30.25,South,172,0.0,0.0,94,0.00,,CLR,0.00,VWS V14.01,2013-04-17 10:32:00,
2013-04-17 06:37:00,28.6,27.1,30.25,South,172,0.0,0.0,94,0.00,,CLR,0.00,VWS V14.01,2013-04-17 10:37:00,
2013-04-17 06:42:00,28.6,27.1,30.25,South,172,0.0,0.0,94,0.00,,,0.00,VWS V14.01,2013-04-17 10:42:00,
2013-04-17 06:47:00,28.6,27.1,30.25,South,172,0.0,0.0,94,0.00,,,0.00,VWS V14.01,2013-04-17 10:47:00,
2013-04-17 06:52:00,28.6,27.1,30.25,South,172,0.0,0.0,94,0.00,,,0.00,VWS V14.01,2013-04-17 10:52:00,
2013-04-17 06:57:00,28.6,27.3,30.25,South,172,0.0,0.0,95,0.00,,,0.00,VWS V14.01,2013-04-17 10:57:00,
2013-04-17 07:02:00,28.6,27.3,30.25,South,172,0.0,0.0,95,0.00,,,0.00,VWS V14.01,2013-04-17 11:02:00,
2013-04-17 07:07:00,28.6,27.3,30.25,South,172,0.0,0.0,95,0.00,,,0.00,VWS V14.01,2013-04-17 11:07:00,
2013-04-17 07:12:00,28.8,27.5,30.25,South,172,0.0,0.0,95,0.00,,,0.00,VWS V14.01,2013-04-17 11:12:00,
2013-04-17 07:17:00,28.9,27.7,30.28,South,172,0.0,0.0,95,0.00,,,0.00,VWS V14.01,2013-04-17 11:17:00,
2013-04-17 07:22:00,29.3,28.0,30.28,South,172,0.0,0.0,95,0.00,,,0.00,VWS V14.01,2013-04-17 11:22:00,
2013-04-17 07:27:00,29.7,28.4,30.28,South,172,0.0,0.0,95,0.00,,,0.00,VWS V14.01,2013-04-17 11:27:00,
2013-04-17 07:32:00,30.0,29.0,30.28,South,172,0.0,0.0,96,0.00,,,0.00,VWS V14.01,2013-04-17 11:32:00,
2013-04-17 07:37:00,30.4,29.4,30.28,South,172,0.0,0.0,96,0.00,,,0.00,VWS V14.01,2013-04-17 11:37:00,
2013-04-17 07:42:00,31.1,30.1,30.28,South,172,0.0,0.0,96,0.00,,CLR,0.00,VWS V14.01,2013-04-17 11:42:00,
2013-04-17 07:47:00,31.6,30.6,30.25,South,172,0.0,0.0,96,0.00,,CLR,0.00,VWS V14.01,2013-04-17 11:47:00,
2013-04-17 07:52:00,32.7,32.0,30.25,NNW,328,0.0,0.0,97,0.00,,CLR,0.00,VWS V14.01,2013-04-17 11:52:00,
2013-04-17 07:57:00,34.0,33.2,30.25,NE,42,0.0,0.0,97,0.00,,CLR,0.00,VWS V14.01,2013-04-17 11:57:00,
2013-04-17 08:02:00,34.9,34.1,30.28,NNW,340,0.0,0.0,97,0.00,,CLR,0.00,VWS V14.01,2013-04-17 12:02:00,
2013-04-17 08:07:00,36.0,35.2,30.28,NW,319,0.0,0.0,97,0.00,,CLR,0.00,VWS V14.01,2013-04-17 12:07:00,
2013-04-17 08:12:00,36.3,35.8,30.28,SSE,149,0.0,0.0,98,0.00,,CLR,0.00,VWS V14.01,2013-04-17 12:12:00,
2013-04-17 08:18:00,36.3,35.8,30.28,NNW,335,0.0,0.0,98,0.00,,CLR,0.00,VWS V14.01,2013-04-17 12:18:00,
2013-04-17 08:23:00,36.5,36.0,30.28,NNE,25,0.0,0.0,98,0.00,,CLR,0.00,VWS V14.01,2013-04-17 12:23:00,
2013-04-17 08:28:00,36.9,36.1,30.28,SSE,161,0.0,0.0,97,0.00,,CLR,0.00,VWS V14.01,2013-04-17 12:28:00,
2013-04-17 08:33:00,36.9,36.1,30.28,ENE,58,4.0,4.0,97,0.00,,CLR,0.00,VWS V14.01,2013-04-17 12:33:00,
2013-04-17 08:38:00,37.2,35.7,30.28,NE,35,0.0,0.0,94,0.00,,CLR,0.00,VWS V14.01,2013-04-17 12:38:00,
2013-04-17 08:43:00,37.6,35.7,30.28,South,176,2.2,2.2,93,0.00,,CLR,0.00,VWS V14.01,2013-04-17 12:43:00,
2013-04-17 08:48:00,37.8,35.4,30.28,SE,126,0.0,0.0,91,0.00,,CLR,0.00,VWS V14.01,2013-04-17 12:48:00,
2013-04-17 08:53:00,38.1,34.9,30.28,SSE,159,0.0,0.0,88,0.00,,CLR,0.00,VWS V14.01,2013-04-17 12:53:00,
2013-04-17 08:58:00,38.3,35.1,30.28,SSW,200,0.0,0.0,88,0.00,,CLR,0.00,VWS V14.01,2013-04-17 12:58:00,
2013-04-17 09:03:00,38.3,35.1,30.28,SSW,205,0.0,3.6,88,0.00,,CLR,0.00,VWS V14.01,2013-04-17 13:03:00,
2013-04-17 09:08:00,38.1,34.9,30.28,South,172,2.7,2.7,88,0.00,,CLR,0.00,VWS V14.01,2013-04-17 13:08:00,
2013-04-17 09:13:00,38.1,34.6,30.28,South,178,0.0,0.0,87,0.00,,CLR,0.00,VWS V14.01,2013-04-17 13:13:00,
2013-04-17 09:18:00,38.1,34.3,30.28,NNE,15,0.0,0.0,86,0.00,,CLR,0.00,VWS V14.01,2013-04-17 13:18:00,
2013-04-17 09:23:00,38.3,34.2,30.28,WNW,283,0.0,0.0,85,0.00,,CLR,0.00,VWS V14.01,2013-04-17 13:23:00,
2013-04-17 09:28:00,38.7,34.2,30.28,SSW,206,0.0,3.6,84,0.00,,CLR,0.00,VWS V14.01,2013-04-17 13:28:00,
2013-04-17 09:33:00,38.8,34.4,30.28,SSE,151,0.0,0.0,84,0.00,,CLR,0.00,VWS V14.01,2013-04-17 13:33:00,
2013-04-17 09:38:00,39.0,34.0,30.28,NNE,14,5.8,6.3,82,0.00,,CLR,0.00,VWS V14.01,2013-04-17 13:38:00,
2013-04-17 09:43:00,39.6,33.3,30.28,NNW,342,5.8,6.3,78,0.00,,BKN018,0.00,VWS V14.01,2013-04-17 13:43:00,
2013-04-17 09:48:00,39.9,32.7,30.31,WNW,301,3.1,3.1,75,0.00,,BKN018,0.00,VWS V14.01,2013-04-17 13:48:00,
2013-04-17 09:53:00,40.3,32.3,30.31,NNW,340,6.7,6.7,73,0.00,,BKN018,0.00,VWS V14.01,2013-04-17 13:53:00,
2013-04-17 09:58:00,40.5,31.8,30.31,SW,225,0.0,4.5,71,0.00,,BKN018,0.00,VWS V14.01,2013-04-17 13:58:00,
2013-04-17 10:03:00,41.0,30.9,30.31,WSW,237,5.8,5.8,67,0.00,,BKN018,0.00,VWS V14.01,2013-04-17 14:03:00,
2013-04-17 10:08:00,41.2,31.4,30.31,NW,314,2.2,5.8,68,0.00,,BKN018,0.00,VWS V14.01,2013-04-17 14:08:00,
2013-04-17 10:13:00,41.0,30.5,30.31,SW,231,4.0,5.4,66,0.00,,BKN018,0.00,VWS V14.01,2013-04-17 14:13:00,
2013-04-17 10:18:00,41.2,29.6,30.31,North,7,3.6,4.9,63,0.00,,BKN018,0.00,VWS V14.01,2013-04-17 14:18:00,
2013-04-17 10:23:00,41.5,29.5,30.31,SW,236,2.7,3.6,62,0.00,,BKN018,0.00,VWS V14.01,2013-04-17 14:23:00,
2013-04-17 10:28:00,42.1,30.4,30.31,SW,233,0.0,0.0,63,0.00,,BKN018,0.00,VWS V14.01,2013-04-17 14:28:00,
2013-04-17 10:33:00,43.0,30.5,30.31,WSW,252,0.0,0.0,61,0.00,,BKN018,0.00,VWS V14.01,2013-04-17 14:33:00,
2013-04-17 10:38:00,43.7,29.9,30.31,SW,227,4.5,4.5,58,0.00,,BKN018,0.00,VWS V14.01,2013-04-17 14:38:00,
2013-04-17 10:43:00,44.1,29.4,30.31,North,353,0.0,0.0,56,0.00,,BKN024,0.00,VWS V14.01,2013-04-17 14:43:00,
2013-04-17 10:48:00,44.4,27.9,30.31,SSW,202,4.9,4.9,52,0.00,,BKN024,0.00,VWS V14.01,2013-04-17 14:48:00,
2013-04-17 10:53:00,45.0,27.5,30.31,SSW,208,0.0,2.7,50,0.00,,BKN024,0.00,VWS V14.01,2013-04-17 14:53:00,
2013-04-17 10:58:00,45.3,27.3,30.31,West,267,0.0,3.6,49,0.00,,BKN024,0.00,VWS V14.01,2013-04-17 14:58:00,
2013-04-17 11:03:00,45.5,27.5,30.31,North,353,2.7,2.7,49,0.00,,BKN024,0.00,VWS V14.01,2013-04-17 15:03:00,
2013-04-17 11:08:00,46.2,27.1,30.31,NW,326,2.7,4.0,47,0.00,,BKN024,0.00,VWS V14.01,2013-04-17 15:08:00,
2013-04-17 11:13:00,46.0,25.9,30.31,NNE,25,8.1,8.1,45,0.00,,BKN024,0.00,VWS V14.01,2013-04-17 15:13:00,
2013-04-17 11:18:00,45.9,26.3,30.31,NNW,338,3.6,4.0,46,0.00,,BKN024,0.00,VWS V14.01,2013-04-17 15:18:00,
2013-04-17 11:23:00,46.0,25.4,30.31,NW,304,0.0,2.2,44,0.00,,BKN024,0.00,VWS V14.01,2013-04-17 15:23:00,
2013-04-17 11:28:00,46.6,26.4,30.31,SSW,195,2.7,3.1,45,0.00,,BKN024,0.00,VWS V14.01,2013-04-17 15:28:00,
2013-04-17 11:33:00,46.9,26.2,30.31,NNW,329,5.4,5.4,44,0.00,,BKN024,0.00,VWS V14.01,2013-04-17 15:33:00,
2013-04-17 11:38:00,46.8,24.9,30.31,SSW,202,0.0,0.0,42,0.00,,BKN024,0.00,VWS V14.01,2013-04-17 15:38:00,
2013-04-17 11:43:00,47.3,25.4,30.31,WSW,245,4.0,5.4,42,0.00,,BKN030,0.00,VWS V14.01,2013-04-17 15:43:00,
2013-04-17 11:48:00,47.5,25.0,30.31,NNE,26,2.7,4.9,41,0.00,,BKN030,0.00,VWS V14.01,2013-04-17 15:48:00,
2013-04-17 11:53:00,47.7,25.1,30.31,WNW,290,3.6,5.8,41,0.00,,BKN030,0.00,VWS V14.01,2013-04-17 15:53:00,
2013-04-17 11:58:00,48.0,24.9,30.31,North,357,7.6,7.6,40,0.00,,BKN030,0.00,VWS V14.01,2013-04-17 15:58:00,
2013-04-17 12:03:00,48.0,25.5,30.31,North,5,5.4,8.3,41,0.00,,BKN030,0.00,VWS V14.01,2013-04-17 16:03:00,
2013-04-17 12:08:00,47.7,24.5,30.31,North,357,6.3,8.3,40,0.00,,BKN030,0.00,VWS V14.01,2013-04-17 16:08:00,
2013-04-17 12:13:00,47.5,24.4,30.31,NW,317,5.8,6.3,40,0.00,,BKN030,0.00,VWS V14.01,2013-04-17 16:13:00,
2013-04-17 12:18:00,47.8,24.7,30.28,WNW,298,3.6,5.4,40,0.00,,BKN030,0.00,VWS V14.01,2013-04-17 16:18:00,
2013-04-17 12:23:00,48.2,24.4,30.28,SW,236,2.2,3.1,39,0.00,,BKN030,0.00,VWS V14.01,2013-04-17 16:23:00,
2013-04-17 12:28:00,48.2,23.8,30.28,North,357,5.4,7.2,38,0.00,,BKN030,0.00,VWS V14.01,2013-04-17 16:28:00,
2013-04-17 12:33:00,48.2,23.8,30.28,NNW,331,8.1,8.1,38,0.00,,BKN030,0.00,VWS V14.01,2013-04-17 16:33:00,
2013-04-17 12:38:00,48.7,24.3,30.28,North,353,3.6,5.4,38,0.00,,BKN030,0.00,VWS V14.01,2013-04-17 16:38:00,
2013-04-17 12:43:00,48.7,24.3,30.28,WNW,296,5.8,5.8,38,0.00,,SCT033,0.00,VWS V14.01,2013-04-17 16:43:00,
2013-04-17 12:48:00,49.3,24.1,30.28,NNE,15,8.1,12.8,37,0.00,,SCT033,0.00,VWS V14.01,2013-04-17 16:48:00,
2013-04-17 13:01:00,49.1,24.0,30.28,WSW,238,5.4,5.4,37,0.00,,SCT033,0.00,VWS V14.01,2013-04-17 17:01:00,
2013-04-17 13:06:00,49.3,24.1,30.28,North,357,5.8,5.8,37,0.00,,SCT033,0.00,VWS V14.01,2013-04-17 17:06:00,
2013-04-17 13:11:00,50.0,24.8,30.28,North,353,6.3,6.3,37,0.00,,SCT033,0.00,VWS V14.01,2013-04-17 17:11:00,
2013-04-17 13:16:00,49.8,24.6,30.28,NE,39,5.4,7.6,37,0.00,,SCT033,0.00,VWS V14.01,2013-04-17 17:16:00,
2013-04-17 13:21:00,50.2,24.9,30.28,NW,326,10.1,10.1,37,0.00,,SCT033,0.00,VWS V14.01,2013-04-17 17:21:00,
2013-04-17 13:26:00,50.2,24.9,30.28,NW,307,3.6,5.4,37,0.00,,SCT033,0.00,VWS V14.01,2013-04-17 17:26:00,
2013-04-17 13:31:00,50.2,24.9,30.28,NW,308,6.3,6.7,37,0.00,,SCT033,0.00,VWS V14.01,2013-04-17 17:31:00,
2013-04-17 13:36:00,50.5,25.2,30.28,NNE,28,2.7,2.7,37,0.00,,SCT033,0.00,VWS V14.01,2013-04-17 17:36:00,
2013-04-17 13:41:00,50.5,24.6,30.28,West,270,2.7,3.1,36,0.00,,FEW037,0.00,VWS V14.01,2013-04-17 17:41:00,
2013-04-17 13:46:00,50.7,24.8,30.31,NW,321,3.1,8.7,36,0.00,,FEW037,0.00,VWS V14.01,2013-04-17 17:46:00,
2013-04-17 13:51:00,50.9,24.9,30.31,West,275,3.6,6.3,36,0.00,,FEW037,0.00,VWS V14.01,2013-04-17 17:51:00,
2013-04-17 13:56:00,51.1,25.1,30.31,SW,232,5.8,5.8,36,0.00,,FEW037,0.00,VWS V14.01,2013-04-17 17:56:00,
2013-04-17 14:01:00,50.9,24.9,30.31,North,1,2.2,4.9,36,0.00,,FEW037,0.00,VWS V14.01,2013-04-17 18:01:00,
2013-04-17 14:06:00,51.1,25.1,30.31,North,353,4.0,4.0,36,0.00,,FEW037,0.00,VWS V14.01,2013-04-17 18:06:00,
2013-04-17 14:11:00,51.4,25.4,30.31,SW,215,6.7,6.7,36,0.00,,FEW037,0.00,VWS V14.01,2013-04-17 18:11:00,
2013-04-17 14:16:00,51.4,24.7,30.31,SW,234,0.0,6.3,35,0.00,,FEW037,0.00,VWS V14.01,2013-04-17 18:16:00,
2013-04-17 14:21:00,51.6,25.6,30.31,SSE,153,2.2,4.0,36,0.00,,FEW037,0.00,VWS V14.01,2013-04-17 18:21:00,
2013-04-17 14:27:00,51.8,25.0,30.31,North,3,8.1,11.0,35,0.00,,FEW037,0.00,VWS V14.01,2013-04-17 18:27:00,
2013-04-17 14:32:00,51.6,24.9,30.31,NNW,336,4.0,8.1,35,0.00,,FEW037,0.00,VWS V14.01,2013-04-17 18:32:00,
2013-04-17 14:37:00,51.6,24.2,30.31,NNE,22,7.6,7.6,34,0.00,,FEW037,0.00,VWS V14.01,2013-04-17 18:37:00,
2013-04-17 14:42:00,51.8,24.3,30.31,NW,312,4.0,10.1,34,0.00,,FEW044,0.00,VWS V14.01,2013-04-17 18:42:00,
2013-04-17 14:47:00,51.6,24.2,30.31,WNW,295,5.8,5.8,34,0.00,,FEW044,0.00,VWS V14.01,2013-04-17 18:47:00,
2013-04-17 14:52:00,51.6,24.2,30.31,NNE,30,6.7,8.3,34,0.00,,FEW044,0.00,VWS V14.01,2013-04-17 18:52:00,
2013-04-17 14:57:00,51.6,24.2,30.31,North,2,5.4,7.2,34,0.00,,FEW044,0.00,VWS V14.01,2013-04-17 18:57:00,
2013-04-17 15:02:00,51.8,24.3,30.31,NW,308,3.6,4.0,34,0.00,,FEW044,0.00,VWS V14.01,2013-04-17 19:02:00,
2013-04-17 15:07:00,52.2,24.0,30.31,NNW,342,3.6,3.6,33,0.00,,FEW044,0.00,VWS V14.01,2013-04-17 19:07:00,
2013-04-17 15:12:00,52.3,23.4,30.31,NNE,26,2.7,2.7,32,0.00,,FEW044,0.00,VWS V14.01,2013-04-17 19:12:00,
2013-04-17 15:17:00,52.2,24.0,30.31,SW,227,2.7,4.0,33,0.00,,FEW044,0.00,VWS V14.01,2013-04-17 19:17:00,
2013-04-17 15:22:00,52.3,24.1,30.31,WSW,242,3.6,3.6,33,0.00,,FEW044,0.00,VWS V14.01,2013-04-17 19:22:00,
2013-04-17 15:27:00,52.5,24.3,30.31,SSE,149,2.7,2.7,33,0.00,,FEW044,0.00,VWS V14.01,2013-04-17 19:27:00,
2013-04-17 15:32:00,52.3,23.4,30.31,SW,234,5.4,5.4,32,0.00,,FEW044,0.00,VWS V14.01,2013-04-17 19:32:00,
2013-04-17 15:37:00,52.0,23.8,30.31,North,3,2.7,2.7,33,0.00,,FEW044,0.00,VWS V14.01,2013-04-17 19:37:00,
2013-04-17 15:42:00,52.0,23.1,30.31,NNW,342,3.6,5.8,32,0.00,,CLR,0.00,VWS V14.01,2013-04-17 19:42:00,
2013-04-17 15:47:00,52.0,23.1,30.31,NNW,340,3.1,3.1,32,0.00,,CLR,0.00,VWS V14.01,2013-04-17 19:47:00,
2013-04-17 15:52:00,51.8,22.9,30.31,NNW,329,4.0,4.0,32,0.00,,CLR,0.00,VWS V14.01,2013-04-17 19:52:00,
2013-04-17 15:57:00,51.8,22.9,30.31,SW,233,6.3,6.3,32,0.00,,CLR,0.00,VWS V14.01,2013-04-17 19:57:00,
2013-04-17 16:02:00,51.8,22.9,30.28,NW,316,2.2,5.8,32,0.00,,CLR,0.00,VWS V14.01,2013-04-17 20:02:00,
2013-04-17 16:07:00,51.6,23.5,30.28,SW,229,4.0,8.1,33,0.00,,CLR,0.00,VWS V14.01,2013-04-17 20:07:00,
2013-04-17 16:12:00,51.6,23.5,30.28,SW,216,2.7,4.0,33,0.00,,CLR,0.00,VWS V14.01,2013-04-17 20:12:00,
2013-04-17 16:17:00,51.4,22.6,30.31,SW,215,3.1,4.0,32,0.00,,CLR,0.00,VWS V14.01,2013-04-17 20:17:00,
2013-04-17 16:22:00,51.3,23.2,30.31,WSW,246,4.9,5.8,33,0.00,,CLR,0.00,VWS V14.01,2013-04-17 20:22:00,
2013-04-17 16:27:00,51.4,23.3,30.31,North,357,5.8,5.8,33,0.00,,CLR,0.00,VWS V14.01,2013-04-17 20:27:00,
2013-04-17 16:32:00,51.3,23.2,30.28,West,261,5.4,5.4,33,0.00,,CLR,0.00,VWS V14.01,2013-04-17 20:32:00,
2013-04-17 16:44:00,51.3,23.2,30.28,West,273,3.6,3.6,33,0.00,,,0.00,VWS V14.01,2013-04-17 20:44:00,
2013-04-17 16:49:00,51.1,23.7,30.31,NW,307,0.0,0.0,34,0.00,,,0.00,VWS V14.01,2013-04-17 20:49:00,
2013-04-17 16:54:00,51.3,23.2,30.31,SW,234,3.6,3.6,33,0.00,,CLR,0.00,VWS V14.01,2013-04-17 20:54:00,
2013-04-17 16:59:00,51.3,23.2,30.31,NW,307,2.7,3.6,33,0.00,,CLR,0.00,VWS V14.01,2013-04-17 20:59:00,
2013-04-17 17:04:00,51.3,23.9,30.31,North,5,5.8,6.3,34,0.00,,CLR,0.00,VWS V14.01,2013-04-17 21:04:00,
2013-04-17 17:09:00,51.3,23.2,30.31,West,262,3.1,5.8,33,0.00,,CLR,0.00,VWS V14.01,2013-04-17 21:09:00,
2013-04-17 17:14:00,51.4,24.0,30.31,SW,227,0.0,0.0,34,0.00,,CLR,0.00,VWS V14.01,2013-04-17 21:14:00,
2013-04-17 17:19:00,51.6,23.5,30.31,NNE,22,0.0,0.0,33,0.00,,CLR,0.00,VWS V14.01,2013-04-17 21:19:00,
2013-04-17 17:24:00,51.8,23.6,30.31,NNW,348,3.1,3.1,33,0.00,,CLR,0.00,VWS V14.01,2013-04-17 21:24:00,
2013-04-17 17:29:00,51.8,23.6,30.31,WNW,299,3.1,5.8,33,0.00,,CLR,0.00,VWS V14.01,2013-04-17 21:29:00,
2013-04-17 17:34:00,51.6,22.7,30.31,SW,231,2.7,3.1,32,0.00,,CLR,0.00,VWS V14.01,2013-04-17 21:34:00,
2013-04-17 17:39:00,51.4,23.3,30.31,NNW,338,5.8,5.8,33,0.00,,CLR,0.00,VWS V14.01,2013-04-17 21:39:00,
2013-04-17 17:44:00,50.9,22.1,30.31,NNE,24,4.0,4.0,32,0.00,,CLR,0.00,VWS V14.01,2013-04-17 21:44:00,
2013-04-17 17:49:00,51.1,23.0,30.31,North,357,3.6,3.6,33,0.00,,CLR,0.00,VWS V14.01,2013-04-17 21:49:00,
2013-04-17 17:54:00,51.3,23.2,30.31,NW,325,4.0,4.0,33,0.00,,CLR,0.00,VWS V14.01,2013-04-17 21:54:00,
2013-04-17 17:59:00,51.3,23.2,30.31,NW,322,3.6,3.6,33,0.00,,CLR,0.00,VWS V14.01,2013-04-17 21:59:00,
2013-04-17 18:04:00,51.3,23.2,30.31,West,271,3.6,3.6,33,0.00,,CLR,0.00,VWS V14.01,2013-04-17 22:04:00,
2013-04-17 18:09:00,51.1,23.0,30.31,NNE,27,0.0,0.0,33,0.00,,CLR,0.00,VWS V14.01,2013-04-17 22:09:00,
2013-04-17 18:14:00,50.9,22.1,30.31,WSW,246,2.2,2.7,32,0.00,,CLR,0.00,VWS V14.01,2013-04-17 22:14:00,
2013-04-17 18:19:00,50.9,22.1,30.31,SW,226,2.7,2.7,32,0.00,,CLR,0.00,VWS V14.01,2013-04-17 22:19:00,
2013-04-17 18:24:00,50.7,22.0,30.31,NW,304,3.6,3.6,32,0.00,,CLR,0.00,VWS V14.01,2013-04-17 22:24:00,
2013-04-17 18:29:00,50.4,21.6,30.31,North,353,5.8,5.8,32,0.00,,CLR,0.00,VWS V14.01,2013-04-17 22:29:00,
2013-04-17 18:34:00,50.2,22.2,30.31,SW,226,2.2,3.1,33,0.00,,CLR,0.00,VWS V14.01,2013-04-17 22:34:00,
2013-04-17 18:39:00,49.8,21.9,30.31,NNW,338,0.0,0.0,33,0.00,,CLR,0.00,VWS V14.01,2013-04-17 22:39:00,
2013-04-17 18:44:00,49.1,22.0,30.31,North,0,0.0,0.0,34,0.00,,CLR,0.00,VWS V14.01,2013-04-17 22:44:00,
2013-04-17 18:49:00,48.6,21.5,30.31,North,357,3.1,3.1,34,0.00,,CLR,0.00,VWS V14.01,2013-04-17 22:49:00,
2013-04-17 18:54:00,48.4,21.3,30.31,NNW,332,0.0,0.0,34,0.00,,CLR,0.00,VWS V14.01,2013-04-17 22:54:00,
2013-04-17 18:59:00,47.7,22.0,30.34,NNW,334,0.0,0.0,36,0.00,,CLR,0.00,VWS V14.01,2013-04-17 22:59:00,
2013-04-17 19:04:00,46.8,21.9,30.34,NNW,334,0.0,0.0,37,0.00,,CLR,0.00,VWS V14.01,2013-04-17 23:04:00,
2013-04-17 19:09:00,45.5,21.4,30.34,NNW,334,0.0,0.0,38,0.00,,CLR,0.00,VWS V14.01,2013-04-17 23:09:00,
2013-04-17 19:14:00,44.6,20.6,30.34,NNW,334,0.0,0.0,38,0.00,,CLR,0.00,VWS V14.01,2013-04-17 23:14:00,
2013-04-17 19:19:00,43.5,20.8,30.34,NNW,334,0.0,0.0,40,0.00,,CLR,0.00,VWS V14.01,2013-04-17 23:19:00,
2013-04-17 19:24:00,42.8,20.8,30.34,NNW,344,0.0,0.0,41,0.00,,CLR,0.00,VWS V14.01,2013-04-17 23:24:00,
2013-04-17 19:29:00,42.1,20.7,30.34,NNW,344,0.0,0.0,42,0.00,,CLR,0.00,VWS V14.01,2013-04-17 23:29:00,
2013-04-17 19:34:00,41.4,20.6,30.34,NNW,344,0.0,0.0,43,0.00,,CLR,0.00,VWS V14.01,2013-04-17 23:34:00,
2013-04-17 19:39:00,40.6,20.5,30.34,NNW,345,0.0,0.0,44,0.00,,CLR,0.00,VWS V14.01,2013-04-17 23:39:00,
2013-04-17 19:44:00,40.1,20.5,30.31,North,349,0.0,0.0,45,0.00,,CLR,0.00,VWS V14.01,2013-04-17 23:44:00,
2013-04-17 19:49:00,39.7,20.7,30.31,North,349,0.0,0.0,46,0.00,,CLR,0.00,VWS V14.01,2013-04-17 23:49:00,
2013-04-17 19:54:00,39.2,20.7,30.31,North,349,0.0,0.0,47,0.00,,CLR,0.00,VWS V14.01,2013-04-17 23:54:00,
2013-04-17 20:00:00,38.8,21.3,30.31,North,349,0.0,0.0,49,0.00,,CLR,0.00,VWS V14.01,2013-04-18 00:00:00,
2013-04-17 20:04:00,38.7,21.6,30.31,North,349,0.0,0.0,50,0.00,,CLR,0.00,VWS V14.01,2013-04-18 00:04:00,
2013-04-17 20:10:00,38.3,21.3,30.31,North,349,0.0,0.0,50,0.00,,CLR,0.00,VWS V14.01,2013-04-18 00:10:00,
2013-04-17 20:15:00,37.9,21.4,30.31,North,349,0.0,0.0,51,0.00,,CLR,0.00,VWS V14.01,2013-04-18 00:15:00,
2013-04-17 20:20:00,37.6,21.6,30.31,NNW,338,0.0,0.0,52,0.00,,CLR,0.00,VWS V14.01,2013-04-18 00:20:00,
2013-04-17 20:25:00,37.4,21.4,30.31,NNW,338,0.0,0.0,52,0.00,,CLR,0.00,VWS V14.01,2013-04-18 00:25:00,
2013-04-17 20:30:00,37.2,21.7,30.31,NNW,338,0.0,0.0,53,0.00,,CLR,0.00,VWS V14.01,2013-04-18 00:30:00,
2013-04-17 20:35:00,36.9,21.8,30.31,NNW,338,0.0,0.0,54,0.00,,CLR,0.00,VWS V14.01,2013-04-18 00:35:00,
2013-04-17 20:40:00,36.7,21.6,30.31,NNW,338,0.0,0.0,54,0.00,,CLR,0.00,VWS V14.01,2013-04-18 00:40:00,
2013-04-17 20:45:00,36.3,21.3,30.31,NNW,338,0.0,0.0,54,0.00,,CLR,0.00,VWS V14.01,2013-04-18 00:45:00,
2013-04-17 20:50:00,36.1,21.5,30.31,NNW,338,0.0,0.0,55,0.00,,CLR,0.00,VWS V14.01,2013-04-18 00:50:00,
2013-04-17 20:55:00,35.8,21.2,30.31,NNW,338,0.0,0.0,55,0.00,,CLR,0.00,VWS V14.01,2013-04-18 00:55:00,
2013-04-17 21:00:00,35.4,21.3,30.31,North,353,0.0,0.0,56,0.00,,CLR,0.00,VWS V14.01,2013-04-18 01:00:00,
2013-04-17 21:05:00,35.2,21.1,30.31,NNW,344,0.0,0.0,56,0.00,,CLR,0.00,VWS V14.01,2013-04-18 01:05:00,
2013-04-17 21:10:00,35.1,21.4,30.31,North,349,0.0,0.0,57,0.00,,CLR,0.00,VWS V14.01,2013-04-18 01:10:00,
2013-04-17 21:15:00,34.9,21.2,30.31,North,349,0.0,0.0,57,0.00,,CLR,0.00,VWS V14.01,2013-04-18 01:15:00,
2013-04-17 21:20:00,34.7,21.0,30.31,North,349,0.0,0.0,57,0.00,,CLR,0.00,VWS V14.01,2013-04-18 01:20:00,
2013-04-17 21:25:00,34.3,21.1,30.31,North,349,0.0,0.0,58,0.00,,CLR,0.00,VWS V14.01,2013-04-18 01:25:00,
2013-04-17 21:30:00,34.2,21.3,30.31,North,349,0.0,0.0,59,0.00,,CLR,0.00,VWS V14.01,2013-04-18 01:30:00,
2013-04-17 21:35:00,34.0,21.2,30.31,North,349,0.0,0.0,59,0.00,,CLR,0.00,VWS V14.01,2013-04-18 01:35:00,
2013-04-17 21:40:00,33.6,21.2,30.31,North,349,0.0,0.0,60,0.00,,CLR,0.00,VWS V14.01,2013-04-18 01:40:00,
2013-04-17 21:45:00,33.4,21.1,30.31,North,349,0.0,0.0,60,0.00,,CLR,0.00,VWS V14.01,2013-04-18 01:45:00,
2013-04-17 21:50:00,33.3,21.3,30.31,North,349,0.0,0.0,61,0.00,,CLR,0.00,VWS V14.01,2013-04-18 01:50:00,
2013-04-17 21:55:00,33.1,21.1,30.31,North,349,0.0,0.0,61,0.00,,CLR,0.00,VWS V14.01,2013-04-18 01:55:00,
2013-04-17 22:00:00,32.7,21.1,30.31,North,349,0.0,0.0,62,0.00,,CLR,0.00,VWS V14.01,2013-04-18 02:00:00,
2013-04-17 22:05:00,32.5,21.0,30.31,North,349,0.0,0.0,62,0.00,,CLR,0.00,VWS V14.01,2013-04-18 02:05:00,
2013-04-17 22:10:00,32.4,21.2,30.31,North,349,0.0,0.0,63,0.00,,CLR,0.00,VWS V14.01,2013-04-18 02:10:00,
2013-04-17 22:15:00,32.2,21.0,30.31,North,349,0.0,0.0,63,0.00,,CLR,0.00,VWS V14.01,2013-04-18 02:15:00,
2013-04-17 22:20:00,32.0,21.2,30.31,North,349,0.0,0.0,64,0.00,,CLR,0.00,VWS V14.01,2013-04-18 02:20:00,
2013-04-17 22:25:00,31.8,21.4,30.31,North,349,0.0,0.0,65,0.00,,CLR,0.00,VWS V14.01,2013-04-18 02:25:00,
2013-04-17 22:30:00,31.6,21.2,30.31,North,353,0.0,0.0,65,0.00,,CLR,0.00,VWS V14.01,2013-04-18 02:30:00,
2013-04-17 22:35:00,31.3,20.9,30.31,North,353,0.0,0.0,65,0.00,,CLR,0.00,VWS V14.01,2013-04-18 02:35:00,
2013-04-17 22:40:00,31.1,21.1,30.31,North,353,0.0,0.0,66,0.00,,CLR,0.00,VWS V14.01,2013-04-18 02:40:00,
2013-04-17 22:45:00,30.9,21.3,30.31,North,353,0.0,0.0,67,0.00,,CLR,0.00,VWS V14.01,2013-04-18 02:45:00,
2013-04-17 22:50:00,30.7,21.1,30.31,North,353,0.0,0.0,67,0.00,,CLR,0.00,VWS V14.01,2013-04-18 02:50:00,
2013-04-17 22:55:00,30.6,21.3,30.31,North,353,0.0,0.0,68,0.00,,CLR,0.00,VWS V14.01,2013-04-18 02:55:00,
2013-04-17 23:00:00,30.4,21.1,30.34,North,353,0.0,0.0,68,0.00,,CLR,0.00,VWS V14.01,2013-04-18 03:00:00,
2013-04-17 23:05:00,30.2,21.3,30.34,North,353,0.0,0.0,69,0.00,,CLR,0.00,VWS V14.01,2013-04-18 03:05:00,
2013-04-17 23:10:00,30.2,21.3,30.34,NNW,339,0.0,0.0,69,0.00,,CLR,0.00,VWS V14.01,2013-04-18 03:10:00,
2013-04-17 23:15:00,30.0,21.4,30.34,NNW,338,0.0,0.0,70,0.00,,CLR,0.00,VWS V14.01,2013-04-18 03:15:00,
2013-04-17 23:20:00,30.0,21.4,30.34,NNW,338,0.0,0.0,70,0.00,,CLR,0.00,VWS V14.01,2013-04-18 03:20:00,
2013-04-17 23:25:00,29.8,21.6,30.34,NNW,339,0.0,0.0,71,0.00,,CLR,0.00,VWS V14.01,2013-04-18 03:25:00,
2013-04-17 23:30:00,29.8,21.6,30.34,NNW,339,0.0,0.0,71,0.00,,CLR,0.00,VWS V14.01,2013-04-18 03:30:00,
2013-04-17 23:35:00,29.7,21.4,30.34,NNW,338,0.0,0.0,71,0.00,,CLR,0.00,VWS V14.01,2013-04-18 03:35:00,
2013-04-17 23:40:00,29.7,21.8,30.34,NNW,338,0.0,0.0,72,0.00,,CLR,0.00,VWS V14.01,2013-04-18 03:40:00,
2013-04-17 23:45:00,29.7,21.8,30.34,NNW,340,0.0,0.0,72,0.00,,CLR,0.00,VWS V14.01,2013-04-18 03:45:00,
2013-04-17 23:50:00,29.7,21.8,30.34,NNW,340,0.0,0.0,72,0.00,,CLR,0.00,VWS V14.01,2013-04-18 03:50:00,
2013-04-17 23:55:00,29.5,21.6,30.34,NNW,340,0.0,0.0,72,0.00,,CLR,0.00,VWS V14.01,2013-04-18 03:55:00,